Earlton, Canada
Current Conditions -  °F | °C
As of 5:00 AM on Friday 28 Nov 2014 (Local Time) from CYXR Reporting Station
Light Snow Light Snow  
Wind Chill: -19°   Ceiling: 2400
Heat Index: -4°   Visibility: 4mi
Dew Point: -8°   Wind: 8mph
Humidity: 85%   Direction: 310°NW
Pressure: 30.2"   Gusts: NA
Location:  47.71°N, 79.82°W
Report Text: CYXR 281000Z AUTO 31007KT 4SM -SN OVC024 M20/M22 A3020 RMK ICG SLP252
Loading
Personal Weather Stations






























Interactive Weather Map New forecast layout! Learn more

10-Day Weather Forecast

Advertisements
Track Severe Weather on mobile